sensor_id;sensor_type;location;lat;lon;timestamp;pressure;altitude;pressure_sealevel;temperature;humidity
8294;BME280;4185;41.506;24.938;2022-09-09T00:02:19;93906.56;;;14.53;82.63
8294;BME280;4185;41.506;24.938;2022-09-09T00:04:54;93905.59;;;14.51;83.17
8294;BME280;4185;41.506;24.938;2022-09-09T00:07:34;93905.84;;;14.36;82.56
8294;BME280;4185;41.506;24.938;2022-09-09T00:10:13;93921.72;;;14.21;82.64
8294;BME280;4185;41.506;24.938;2022-09-09T00:12:51;93909.81;;;14.13;82.91
8294;BME280;4185;41.506;24.938;2022-09-09T00:15:25;93908.56;;;14.14;83.47
8294;BME280;4185;41.506;24.938;2022-09-09T00:17:58;93904.88;;;14.12;84.31
8294;BME280;4185;41.506;24.938;2022-09-09T00:20:32;93900.66;;;14.05;85.31
8294;BME280;4185;41.506;24.938;2022-09-09T00:23:11;93905.88;;;14.03;84.88
8294;BME280;4185;41.506;24.938;2022-09-09T00:25:42;93905.13;;;14.08;83.59
8294;BME280;4185;41.506;24.938;2022-09-09T00:28:16;93910.81;;;14.16;83.19
8294;BME280;4185;41.506;24.938;2022-09-09T00:30:46;93897.69;;;14.25;82.73
8294;BME280;4185;41.506;24.938;2022-09-09T00:33:16;93915.28;;;14.30;83.41
8294;BME280;4185;41.506;24.938;2022-09-09T00:35:45;93900.38;;;14.31;82.70
8294;BME280;4185;41.506;24.938;2022-09-09T00:38:15;93897.66;;;14.36;83.15
8294;BME280;4185;41.506;24.938;2022-09-09T00:40:49;93886.72;;;14.31;81.75
8294;BME280;4185;41.506;24.938;2022-09-09T00:43:25;93896.16;;;14.35;82.50
8294;BME280;4185;41.506;24.938;2022-09-09T00:46:05;93882.75;;;14.26;83.86
8294;BME280;4185;41.506;24.938;2022-09-09T00:48:44;93895.16;;;14.22;83.53
8294;BME280;4185;41.506;24.938;2022-09-09T00:51:19;93889.94;;;14.07;83.65
8294;BME280;4185;41.506;24.938;2022-09-09T00:54:04;93895.19;;;13.89;84.42
8294;BME280;4185;41.506;24.938;2022-09-09T00:56:37;93896.94;;;13.86;84.62
8294;BME280;4185;41.506;24.938;2022-09-09T00:59:16;93889.50;;;13.87;85.08
8294;BME280;4185;41.506;24.938;2022-09-09T01:01:52;93886.75;;;13.87;85.31
8294;BME280;4185;41.506;24.938;2022-09-09T01:04:26;93890.72;;;13.91;84.98
8294;BME280;4185;41.506;24.938;2022-09-09T01:07:03;93897.16;;;13.99;84.52
8294;BME280;4185;41.506;24.938;2022-09-09T01:09:42;93894.44;;;14.05;84.07
8294;BME280;4185;41.506;24.938;2022-09-09T01:12:16;93889.19;;;14.12;83.24
8294;BME280;4185;41.506;24.938;2022-09-09T01:14:45;93890.19;;;14.15;83.54
8294;BME280;4185;41.506;24.938;2022-09-09T01:17:18;93895.19;;;14.05;84.64
8294;BME280;4185;41.506;24.938;2022-09-09T01:19:55;93902.88;;;13.96;84.41
8294;BME280;4185;41.506;24.938;2022-09-09T01:22:31;93905.13;;;13.86;85.19
8294;BME280;4185;41.506;24.938;2022-09-09T01:25:15;93898.16;;;13.85;84.05
8294;BME280;4185;41.506;24.938;2022-09-09T01:27:48;93894.94;;;13.87;85.15
8294;BME280;4185;41.506;24.938;2022-09-09T01:30:18;93897.94;;;13.83;85.19
8294;BME280;4185;41.506;24.938;2022-09-09T01:32:46;93904.34;;;13.80;84.90
8294;BME280;4185;41.506;24.938;2022-09-09T01:35:21;93903.13;;;13.81;85.05
8294;BME280;4185;41.506;24.938;2022-09-09T01:37:49;93887.50;;;13.82;85.38
8294;BME280;4185;41.506;24.938;2022-09-09T01:40:15;93882.28;;;13.78;85.44
8294;BME280;4185;41.506;24.938;2022-09-09T01:42:42;93883.28;;;13.64;85.36
8294;BME280;4185;41.506;24.938;2022-09-09T01:45:11;93880.78;;;13.55;85.51
8294;BME280;4185;41.506;24.938;2022-09-09T01:47:37;93878.28;;;13.52;84.96
8294;BME280;4185;41.506;24.938;2022-09-09T01:50:06;93884.00;;;13.54;85.58
8294;BME280;4185;41.506;24.938;2022-09-09T01:52:35;93887.75;;;13.56;85.17
8294;BME280;4185;41.506;24.938;2022-09-09T01:55:03;93899.66;;;13.64;84.91
8294;BME280;4185;41.506;24.938;2022-09-09T01:57:33;93886.75;;;13.70;84.57
8294;BME280;4185;41.506;24.938;2022-09-09T02:00:07;93892.69;;;13.69;84.36
8294;BME280;4185;41.506;24.938;2022-09-09T02:02:42;93888.72;;;13.75;83.89
8294;BME280;4185;41.506;24.938;2022-09-09T02:05:20;93878.81;;;13.72;84.34
8294;BME280;4185;41.506;24.938;2022-09-09T02:07:57;93873.84;;;13.65;85.04
8294;BME280;4185;41.506;24.938;2022-09-09T02:10:31;93875.31;;;13.55;85.14
8294;BME280;4185;41.506;24.938;2022-09-09T02:13:01;93879.28;;;13.48;84.88
8294;BME280;4185;41.506;24.938;2022-09-09T02:15:36;93888.22;;;13.49;85.27
8294;BME280;4185;41.506;24.938;2022-09-09T02:18:10;93886.47;;;13.52;85.37
8294;BME280;4185;41.506;24.938;2022-09-09T02:20:39;93878.53;;;13.54;84.84
8294;BME280;4185;41.506;24.938;2022-09-09T02:23:08;93883.25;;;13.53;84.95
8294;BME280;4185;41.506;24.938;2022-09-09T02:25:36;93881.00;;;13.40;85.53
8294;BME280;4185;41.506;24.938;2022-09-09T02:28:04;93882.75;;;13.38;85.98
8294;BME280;4185;41.506;24.938;2022-09-09T02:30:34;93880.75;;;13.33;85.65
8294;BME280;4185;41.506;24.938;2022-09-09T02:33:04;93880.50;;;13.31;85.58
8294;BME280;4185;41.506;24.938;2022-09-09T02:35:35;93875.28;;;13.27;85.69
8294;BME280;4185;41.506;24.938;2022-09-09T02:38:06;93872.81;;;13.24;86.43
8294;BME280;4185;41.506;24.938;2022-09-09T02:40:33;93881.50;;;13.22;85.81
8294;BME280;4185;41.506;24.938;2022-09-09T02:43:00;93876.75;;;13.23;85.92
8294;BME280;4185;41.506;24.938;2022-09-09T02:45:31;93880.75;;;13.22;85.48
8294;BME280;4185;41.506;24.938;2022-09-09T02:48:09;93878.50;;;13.26;85.93
8294;BME280;4185;41.506;24.938;2022-09-09T02:50:46;93870.34;;;13.37;84.99
8294;BME280;4185;41.506;24.938;2022-09-09T02:53:18;93871.59;;;13.36;84.15
8294;BME280;4185;41.506;24.938;2022-09-09T02:55:47;93871.81;;;13.38;84.46
8294;BME280;4185;41.506;24.938;2022-09-09T02:58:17;93866.13;;;13.36;84.35
8294;BME280;4185;41.506;24.938;2022-09-09T03:00:46;93873.28;;;13.28;84.91
8294;BME280;4185;41.506;24.938;2022-09-09T03:03:14;93871.31;;;13.23;84.82
8294;BME280;4185;41.506;24.938;2022-09-09T03:05:43;93865.38;;;13.19;84.39
8294;BME280;4185;41.506;24.938;2022-09-09T03:08:10;93857.91;;;13.19;84.78
8294;BME280;4185;41.506;24.938;2022-09-09T03:10:38;93869.56;;;13.14;85.49
8294;BME280;4185;41.506;24.938;2022-09-09T03:13:06;93866.56;;;13.12;84.92
8294;BME280;4185;41.506;24.938;2022-09-09T03:15:33;93864.81;;;13.09;85.58
8294;BME280;4185;41.506;24.938;2022-09-09T03:18:00;93858.66;;;13.09;85.92
8294;BME280;4185;41.506;24.938;2022-09-09T03:20:29;93857.41;;;13.10;85.49
8294;BME280;4185;41.506;24.938;2022-09-09T03:22:59;93860.09;;;13.04;84.71
8294;BME280;4185;41.506;24.938;2022-09-09T03:25:26;93863.50;;;12.94;85.15
8294;BME280;4185;41.506;24.938;2022-09-09T03:27:54;93860.53;;;12.86;85.76
8294;BME280;4185;41.506;24.938;2022-09-09T03:30:22;93865.28;;;12.97;85.57
8294;BME280;4185;41.506;24.938;2022-09-09T03:32:49;93866.31;;;13.05;85.83
8294;BME280;4185;41.506;24.938;2022-09-09T03:35:15;93871.22;;;13.01;84.86
8294;BME280;4185;41.506;24.938;2022-09-09T03:37:42;93875.19;;;13.00;84.74
8294;BME280;4185;41.506;24.938;2022-09-09T03:40:11;93875.19;;;13.00;85.07
8294;BME280;4185;41.506;24.938;2022-09-09T03:42:38;93885.84;;;12.98;84.68
8294;BME280;4185;41.506;24.938;2022-09-09T03:45:08;93881.63;;;12.97;84.36
8294;BME280;4185;41.506;24.938;2022-09-09T03:47:36;93880.59;;;12.89;84.82
8294;BME280;4185;41.506;24.938;2022-09-09T03:50:03;93883.31;;;12.89;84.97
8294;BME280;4185;41.506;24.938;2022-09-09T03:52:34;93876.88;;;12.86;84.79
8294;BME280;4185;41.506;24.938;2022-09-09T03:55:01;93879.84;;;12.83;84.78
8294;BME280;4185;41.506;24.938;2022-09-09T03:57:29;93875.38;;;12.80;84.39
8294;BME280;4185;41.506;24.938;2022-09-09T03:59:57;93886.28;;;12.80;85.32
8294;BME280;4185;41.506;24.938;2022-09-09T04:02:26;93877.31;;;12.74;85.34
8294;BME280;4185;41.506;24.938;2022-09-09T04:04:53;93885.00;;;12.70;85.93
8294;BME280;4185;41.506;24.938;2022-09-09T04:07:19;93874.34;;;12.66;86.02
8294;BME280;4185;41.506;24.938;2022-09-09T04:09:46;93867.38;;;12.65;86.04
8294;BME280;4185;41.506;24.938;2022-09-09T04:12:13;93877.56;;;12.65;85.49
8294;BME280;4185;41.506;24.938;2022-09-09T04:14:41;93872.78;;;12.54;85.21
8294;BME280;4185;41.506;24.938;2022-09-09T04:17:08;93875.31;;;12.69;84.95
8294;BME280;4185;41.506;24.938;2022-09-09T04:19:35;93875.59;;;12.71;85.36
8294;BME280;4185;41.506;24.938;2022-09-09T04:22:02;93884.03;;;12.73;84.91
8294;BME280;4185;41.506;24.938;2022-09-09T04:24:29;93883.31;;;12.78;84.34
8294;BME280;4185;41.506;24.938;2022-09-09T04:26:56;93885.06;;;12.86;83.91
8294;BME280;4185;41.506;24.938;2022-09-09T04:29:23;93882.88;;;12.90;84.33
8294;BME280;4185;41.506;24.938;2022-09-09T04:31:51;93876.66;;;13.01;83.71
8294;BME280;4185;41.506;24.938;2022-09-09T04:34:18;93885.16;;;13.03;84.66
8294;BME280;4185;41.506;24.938;2022-09-09T04:36:45;93888.38;;;13.01;84.65
8294;BME280;4185;41.506;24.938;2022-09-09T04:39:12;93891.13;;;13.07;84.84
8294;BME280;4185;41.506;24.938;2022-09-09T04:41:39;93889.13;;;13.02;86.19
8294;BME280;4185;41.506;24.938;2022-09-09T04:44:06;93883.94;;;13.04;85.34
8294;BME280;4185;41.506;24.938;2022-09-09T04:46:33;93886.41;;;13.13;83.46
8294;BME280;4185;41.506;24.938;2022-09-09T04:49:02;93875.53;;;13.18;83.92
8294;BME280;4185;41.506;24.938;2022-09-09T04:51:28;93880.22;;;13.18;85.19
8294;BME280;4185;41.506;24.938;2022-09-09T04:53:56;93879.50;;;13.17;85.47
8294;BME280;4185;41.506;24.938;2022-09-09T04:56:23;93881.72;;;13.19;85.12
8294;BME280;4185;41.506;24.938;2022-09-09T04:58:52;93881.22;;;13.15;85.20
8294;BME280;4185;41.506;24.938;2022-09-09T05:01:20;93885.69;;;13.18;84.74
8294;BME280;4185;41.506;24.938;2022-09-09T05:03:48;93891.16;;;13.29;84.45
8294;BME280;4185;41.506;24.938;2022-09-09T05:06:18;93884.50;;;13.41;84.18
8294;BME280;4185;41.506;24.938;2022-09-09T05:08:45;93894.91;;;13.54;83.97
8294;BME280;4185;41.506;24.938;2022-09-09T05:11:14;93885.25;;;13.64;83.93
8294;BME280;4185;41.506;24.938;2022-09-09T05:13:42;93883.28;;;13.64;84.29
8294;BME280;4185;41.506;24.938;2022-09-09T05:16:09;93889.72;;;13.72;83.88
8294;BME280;4185;41.506;24.938;2022-09-09T05:18:37;93887.75;;;13.78;83.53
8294;BME280;4185;41.506;24.938;2022-09-09T05:21:04;93890.22;;;13.87;83.30
8294;BME280;4185;41.506;24.938;2022-09-09T05:23:33;93878.28;;;13.96;83.26
8294;BME280;4185;41.506;24.938;2022-09-09T05:26:01;93883.25;;;13.97;83.82
8294;BME280;4185;41.506;24.938;2022-09-09T05:28:28;93886.75;;;14.03;83.76
8294;BME280;4185;41.506;24.938;2022-09-09T05:30:56;93884.25;;;14.05;83.39
8294;BME280;4185;41.506;24.938;2022-09-09T05:33:24;93884.75;;;14.09;83.62
8294;BME280;4185;41.506;24.938;2022-09-09T05:35:56;93886.72;;;14.20;83.26
8294;BME280;4185;41.506;24.938;2022-09-09T05:38:23;93889.19;;;14.34;82.94
8294;BME280;4185;41.506;24.938;2022-09-09T05:40:52;93889.44;;;14.47;82.56
8294;BME280;4185;41.506;24.938;2022-09-09T05:43:19;93889.91;;;14.57;82.66
8294;BME280;4185;41.506;24.938;2022-09-09T05:45:47;93878.19;;;14.68;82.72
8294;BME280;4185;41.506;24.938;2022-09-09T05:48:14;93876.91;;;14.74;82.52
8294;BME280;4185;41.506;24.938;2022-09-09T05:50:41;93877.38;;;14.84;82.77
8294;BME280;4185;41.506;24.938;2022-09-09T05:53:09;93876.06;;;14.96;83.03
8294;BME280;4185;41.506;24.938;2022-09-09T05:55:36;93867.59;;;15.05;83.35
8294;BME280;4185;41.506;24.938;2022-09-09T05:58:04;93872.03;;;15.13;84.59
8294;BME280;4185;41.506;24.938;2022-09-09T06:00:31;93862.25;;;15.23;83.69
8294;BME280;4185;41.506;24.938;2022-09-09T06:02:58;93867.94;;;15.31;84.05
8294;BME280;4185;41.506;24.938;2022-09-09T06:05:25;93869.66;;;15.39;84.98
8294;BME280;4185;41.506;24.938;2022-09-09T06:07:53;93868.84;;;15.50;84.44
8294;BME280;4185;41.506;24.938;2022-09-09T06:10:21;93868.28;;;15.57;84.91
8294;BME280;4185;41.506;24.938;2022-09-09T06:12:48;93863.75;;;15.65;85.15
8294;BME280;4185;41.506;24.938;2022-09-09T06:15:16;93870.91;;;15.73;84.66
8294;BME280;4185;41.506;24.938;2022-09-09T06:17:43;93860.38;;;15.83;84.81
8294;BME280;4185;41.506;24.938;2022-09-09T06:20:11;93867.03;;;15.93;84.30
8294;BME280;4185;41.506;24.938;2022-09-09T06:22:39;93863.50;;;15.98;84.29
8294;BME280;4185;41.506;24.938;2022-09-09T06:25:07;93863.38;;;16.09;84.66
8294;BME280;4185;41.506;24.938;2022-09-09T06:27:34;93859.56;;;16.18;84.68
8294;BME280;4185;41.506;24.938;2022-09-09T06:30:02;93856.22;;;16.30;85.07
8294;BME280;4185;41.506;24.938;2022-09-09T06:32:30;93853.13;;;16.39;84.68
8294;BME280;4185;41.506;24.938;2022-09-09T06:35:00;93848.56;;;16.47;83.89
8294;BME280;4185;41.506;24.938;2022-09-09T06:37:27;93845.50;;;16.56;83.32
8294;BME280;4185;41.506;24.938;2022-09-09T06:39:54;93847.16;;;16.65;83.37
8294;BME280;4185;41.506;24.938;2022-09-09T06:42:21;93839.53;;;16.76;83.02
8294;BME280;4185;41.506;24.938;2022-09-09T06:44:48;93839.41;;;16.87;83.22
8294;BME280;4185;41.506;24.938;2022-09-09T06:47:15;93841.56;;;16.94;82.88
8294;BME280;4185;41.506;24.938;2022-09-09T06:49:43;93841.63;;;17.08;82.97
8294;BME280;4185;41.506;24.938;2022-09-09T06:52:10;93836.22;;;17.21;83.20
8294;BME280;4185;41.506;24.938;2022-09-09T06:54:37;93835.31;;;17.31;81.93
8294;BME280;4185;41.506;24.938;2022-09-09T06:57:04;93843.38;;;17.42;81.54
8294;BME280;4185;41.506;24.938;2022-09-09T06:59:32;93846.75;;;17.54;81.17
8294;BME280;4185;41.506;24.938;2022-09-09T07:01:59;93834.13;;;17.64;80.56
8294;BME280;4185;41.506;24.938;2022-09-09T07:04:26;93837.66;;;17.77;80.34
8294;BME280;4185;41.506;24.938;2022-09-09T07:06:54;93835.69;;;17.91;79.80
8294;BME280;4185;41.506;24.938;2022-09-09T07:09:21;93838.03;;;18.00;79.90
8294;BME280;4185;41.506;24.938;2022-09-09T07:11:50;93830.84;;;18.10;79.16
8294;BME280;4185;41.506;24.938;2022-09-09T07:14:18;93836.91;;;18.21;78.73
8294;BME280;4185;41.506;24.938;2022-09-09T07:16:45;93844.00;;;18.30;78.40
8294;BME280;4185;41.506;24.938;2022-09-09T07:19:13;93843.84;;;18.41;78.38
8294;BME280;4185;41.506;24.938;2022-09-09T07:21:40;93848.81;;;18.56;78.49
8294;BME280;4185;41.506;24.938;2022-09-09T07:24:09;93850.84;;;18.68;78.33
8294;BME280;4185;41.506;24.938;2022-09-09T07:26:37;93853.56;;;18.81;77.58
8294;BME280;4185;41.506;24.938;2022-09-09T07:29:04;93849.13;;;18.91;77.06
8294;BME280;4185;41.506;24.938;2022-09-09T07:31:32;93847.19;;;18.99;77.66
8294;BME280;4185;41.506;24.938;2022-09-09T07:33:59;93847.72;;;19.11;76.97
8294;BME280;4185;41.506;24.938;2022-09-09T07:36:28;93848.44;;;19.24;76.54
8294;BME280;4185;41.506;24.938;2022-09-09T07:38:56;93843.03;;;19.32;75.63
8294;BME280;4185;41.506;24.938;2022-09-09T07:41:26;93853.69;;;19.49;74.46
8294;BME280;4185;41.506;24.938;2022-09-09T07:43:53;93857.47;;;19.59;74.92
8294;BME280;4185;41.506;24.938;2022-09-09T07:46:22;93846.22;;;19.70;75.12
8294;BME280;4185;41.506;24.938;2022-09-09T07:48:51;93833.44;;;19.80;75.71
8294;BME280;4185;41.506;24.938;2022-09-09T07:51:20;93838.69;;;19.91;74.83
8294;BME280;4185;41.506;24.938;2022-09-09T07:53:48;93837.56;;;20.07;74.47
8294;BME280;4185;41.506;24.938;2022-09-09T07:56:16;93833.28;;;20.19;73.59
8294;BME280;4185;41.506;24.938;2022-09-09T07:58:46;93829.66;;;20.31;72.59
8294;BME280;4185;41.506;24.938;2022-09-09T08:01:15;93828.84;;;20.44;72.44
8294;BME280;4185;41.506;24.938;2022-09-09T08:03:43;93824.72;;;20.58;72.20
8294;BME280;4185;41.506;24.938;2022-09-09T08:06:11;93828.63;;;20.70;71.53
8294;BME280;4185;41.506;24.938;2022-09-09T08:08:40;93820.25;;;20.83;69.82
8294;BME280;4185;41.506;24.938;2022-09-09T08:11:11;93818.13;;;20.97;69.56
8294;BME280;4185;41.506;24.938;2022-09-09T08:13:41;93813.44;;;21.12;69.63
8294;BME280;4185;41.506;24.938;2022-09-09T08:16:11;93814.94;;;21.21;69.34
8294;BME280;4185;41.506;24.938;2022-09-09T08:18:39;93816.06;;;21.33;69.12
8294;BME280;4185;41.506;24.938;2022-09-09T08:21:07;93813.00;;;21.44;68.15
8294;BME280;4185;41.506;24.938;2022-09-09T08:23:37;93808.25;;;21.59;68.70
8294;BME280;4185;41.506;24.938;2022-09-09T08:26:06;93806.97;;;21.75;68.04
8294;BME280;4185;41.506;24.938;2022-09-09T08:28:34;93800.38;;;21.86;67.69
8294;BME280;4185;41.506;24.938;2022-09-09T08:31:10;93804.81;;;21.97;67.21
8294;BME280;4185;41.506;24.938;2022-09-09T08:33:37;93804.09;;;22.11;66.65
8294;BME280;4185;41.506;24.938;2022-09-09T08:36:05;93797.81;;;22.18;65.81
8294;BME280;4185;41.506;24.938;2022-09-09T08:38:34;93803.34;;;22.33;65.94
8294;BME280;4185;41.506;24.938;2022-09-09T08:41:12;93798.16;;;22.45;65.01
8294;BME280;4185;41.506;24.938;2022-09-09T08:43:46;93798.38;;;22.54;64.38
8294;BME280;4185;41.506;24.938;2022-09-09T08:46:20;93794.47;;;22.65;64.26
8294;BME280;4185;41.506;24.938;2022-09-09T08:48:57;93790.56;;;22.75;63.84
8294;BME280;4185;41.506;24.938;2022-09-09T08:51:27;93781.31;;;22.88;63.65
8294;BME280;4185;41.506;24.938;2022-09-09T08:53:57;93790.69;;;23.00;63.16
8294;BME280;4185;41.506;24.938;2022-09-09T08:56:26;93782.16;;;23.13;64.07
8294;BME280;4185;41.506;24.938;2022-09-09T08:58:55;93784.66;;;23.26;63.26
8294;BME280;4185;41.506;24.938;2022-09-09T09:01:39;93787.78;;;23.38;62.54
8294;BME280;4185;41.506;24.938;2022-09-09T09:04:19;93771.06;;;23.53;60.42
8294;BME280;4185;41.506;24.938;2022-09-09T09:06:56;93771.19;;;23.62;60.57
8294;BME280;4185;41.506;24.938;2022-09-09T09:09:30;93777.44;;;23.70;61.23
8294;BME280;4185;41.506;24.938;2022-09-09T09:12:10;93772.56;;;23.78;60.12
8294;BME280;4185;41.506;24.938;2022-09-09T09:14:43;93765.66;;;23.87;59.89
8294;BME280;4185;41.506;24.938;2022-09-09T09:17:14;93763.56;;;23.95;59.73
8294;BME280;4185;41.506;24.938;2022-09-09T09:19:45;93761.25;;;24.08;59.12
8294;BME280;4185;41.506;24.938;2022-09-09T09:22:18;93761.31;;;24.26;59.31
8294;BME280;4185;41.506;24.938;2022-09-09T09:24:52;93761.34;;;24.43;55.99
8294;BME280;4185;41.506;24.938;2022-09-09T09:27:27;93762.50;;;24.57;55.19
8294;BME280;4185;41.506;24.938;2022-09-09T09:29:59;93759.25;;;24.68;54.48
8294;BME280;4185;41.506;24.938;2022-09-09T09:32:30;93761.75;;;24.81;54.44
8294;BME280;4185;41.506;24.938;2022-09-09T09:35:02;93749.06;;;25.04;52.40
8294;BME280;4185;41.506;24.938;2022-09-09T09:37:34;93755.00;;;25.18;51.58
8294;BME280;4185;41.506;24.938;2022-09-09T09:40:10;93753.09;;;25.20;51.37
8294;BME280;4185;41.506;24.938;2022-09-09T09:42:38;93744.41;;;25.33;52.02
8294;BME280;4185;41.506;24.938;2022-09-09T09:45:16;93746.72;;;25.45;50.69
8294;BME280;4185;41.506;24.938;2022-09-09T09:47:59;93742.69;;;25.55;50.68
8294;BME280;4185;41.506;24.938;2022-09-09T09:50:27;93738.63;;;25.66;51.37
8294;BME280;4185;41.506;24.938;2022-09-09T09:52:55;93733.84;;;25.76;50.35
8294;BME280;4185;41.506;24.938;2022-09-09T09:55:23;93728.00;;;25.81;51.11
8294;BME280;4185;41.506;24.938;2022-09-09T09:57:52;93737.28;;;25.93;50.00
8294;BME280;4185;41.506;24.938;2022-09-09T10:00:21;93730.84;;;26.00;49.31
8294;BME280;4185;41.506;24.938;2022-09-09T10:02:49;93738.69;;;26.11;50.47
8294;BME280;4185;41.506;24.938;2022-09-09T10:05:21;93745.31;;;26.25;49.37
8294;BME280;4185;41.506;24.938;2022-09-09T10:08:00;93734.06;;;26.33;48.58
8294;BME280;4185;41.506;24.938;2022-09-09T10:10:47;93736.56;;;26.38;48.55
8294;BME280;4185;41.506;24.938;2022-09-09T10:13:20;93729.41;;;26.45;49.24
8294;BME280;4185;41.506;24.938;2022-09-09T10:15:58;93733.81;;;26.58;48.53
8294;BME280;4185;41.506;24.938;2022-09-09T10:18:43;93737.19;;;26.66;48.81
8294;BME280;4185;41.506;24.938;2022-09-09T10:21:27;93721.09;;;26.74;48.10
8294;BME280;4185;41.506;24.938;2022-09-09T10:24:12;93724.78;;;26.86;48.38
8294;BME280;4185;41.506;24.938;2022-09-09T10:26:49;93731.09;;;26.96;48.52
8294;BME280;4185;41.506;24.938;2022-09-09T10:29:32;93723.72;;;27.10;47.95
8294;BME280;4185;41.506;24.938;2022-09-09T10:32:14;93725.34;;;27.22;48.10
8294;BME280;4185;41.506;24.938;2022-09-09T10:34:56;93730.47;;;27.26;46.52
8294;BME280;4185;41.506;24.938;2022-09-09T10:37:37;93732.25;;;27.31;46.63
8294;BME280;4185;41.506;24.938;2022-09-09T10:40:25;93724.16;;;27.35;46.83
8294;BME280;4185;41.506;24.938;2022-09-09T10:43:01;93717.81;;;27.44;46.45
8294;BME280;4185;41.506;24.938;2022-09-09T10:45:38;93716.75;;;27.58;45.92
8294;BME280;4185;41.506;24.938;2022-09-09T10:48:19;93710.59;;;27.60;46.06
8294;BME280;4185;41.506;24.938;2022-09-09T10:50:55;93707.66;;;27.58;46.10
8294;BME280;4185;41.506;24.938;2022-09-09T10:53:35;93702.50;;;27.64;45.50
8294;BME280;4185;41.506;24.938;2022-09-09T10:56:06;93700.75;;;27.59;45.60
8294;BME280;4185;41.506;24.938;2022-09-09T10:58:38;93704.88;;;27.58;45.10
8294;BME280;4185;41.506;24.938;2022-09-09T11:01:15;93697.00;;;27.76;46.05
8294;BME280;4185;41.506;24.938;2022-09-09T11:03:43;93696.50;;;27.98;45.15
8294;BME280;4185;41.506;24.938;2022-09-09T11:06:18;93698.78;;;28.11;45.43
8294;BME280;4185;41.506;24.938;2022-09-09T11:08:48;93697.25;;;28.29;46.02
8294;BME280;4185;41.506;24.938;2022-09-09T11:11:18;93695.59;;;28.57;45.75
8294;BME280;4185;41.506;24.938;2022-09-09T11:13:49;93694.59;;;28.73;44.39
8294;BME280;4185;41.506;24.938;2022-09-09T11:16:25;93686.03;;;28.60;44.96
8294;BME280;4185;41.506;24.938;2022-09-09T11:18:58;93684.06;;;28.20;45.74
8294;BME280;4185;41.506;24.938;2022-09-09T11:21:30;93694.84;;;28.35;44.66
8294;BME280;4185;41.506;24.938;2022-09-09T11:24:03;93701.81;;;27.94;45.36
8294;BME280;4185;41.506;24.938;2022-09-09T11:26:37;93694.41;;;28.08;44.97
8294;BME280;4185;41.506;24.938;2022-09-09T11:29:17;93695.84;;;28.09;46.22
8294;BME280;4185;41.506;24.938;2022-09-09T11:32:00;93682.47;;;28.38;45.82
8294;BME280;4185;41.506;24.938;2022-09-09T11:34:43;93684.28;;;28.76;44.63
8294;BME280;4185;41.506;24.938;2022-09-09T11:37:41;93674.09;;;28.81;44.24
8294;BME280;4185;41.506;24.938;2022-09-09T11:40:23;93675.75;;;28.95;44.36
8294;BME280;4185;41.506;24.938;2022-09-09T11:43:01;93670.78;;;29.05;43.63
8294;BME280;4185;41.506;24.938;2022-09-09T11:45:30;93672.09;;;29.04;43.41
8294;BME280;4185;41.506;24.938;2022-09-09T11:48:00;93665.53;;;29.00;43.90
8294;BME280;4185;41.506;24.938;2022-09-09T11:50:33;93666.00;;;28.96;45.10
8294;BME280;4185;41.506;24.938;2022-09-09T11:53:19;93670.47;;;28.90;45.37
8294;BME280;4185;41.506;24.938;2022-09-09T11:56:09;93664.59;;;29.07;45.04
8294;BME280;4185;41.506;24.938;2022-09-09T11:58:43;93651.81;;;29.04;45.50
8294;BME280;4185;41.506;24.938;2022-09-09T12:01:42;93653.06;;;28.80;45.75
8294;BME280;4185;41.506;24.938;2022-09-09T12:04:21;93660.53;;;28.65;45.46
8294;BME280;4185;41.506;24.938;2022-09-09T12:06:56;93653.34;;;28.62;46.69
8294;BME280;4185;41.506;24.938;2022-09-09T12:09:30;93647.13;;;29.18;45.00
8294;BME280;4185;41.506;24.938;2022-09-09T12:12:24;93639.09;;;29.12;45.81
8294;BME280;4185;41.506;24.938;2022-09-09T12:14:59;93651.56;;;29.32;44.12
8294;BME280;4185;41.506;24.938;2022-09-09T12:17:28;93644.75;;;29.35;42.99
8294;BME280;4185;41.506;24.938;2022-09-09T12:20:06;93646.97;;;29.60;41.36
8294;BME280;4185;41.506;24.938;2022-09-09T12:22:43;93650.31;;;29.68;39.42
8294;BME280;4185;41.506;24.938;2022-09-09T12:25:20;93641.88;;;29.56;39.87
8294;BME280;4185;41.506;24.938;2022-09-09T12:28:02;93630.00;;;29.35;40.83
8294;BME280;4185;41.506;24.938;2022-09-09T12:30:36;93631.63;;;29.61;40.97
8294;BME280;4185;41.506;24.938;2022-09-09T12:33:10;93625.94;;;29.82;40.51
8294;BME280;4185;41.506;24.938;2022-09-09T12:35:40;93614.97;;;29.98;40.90
8294;BME280;4185;41.506;24.938;2022-09-09T12:38:13;93614.94;;;30.09;39.57
8294;BME280;4185;41.506;24.938;2022-09-09T12:40:54;93614.59;;;30.03;38.44
8294;BME280;4185;41.506;24.938;2022-09-09T12:43:24;93608.00;;;30.22;39.79
8294;BME280;4185;41.506;24.938;2022-09-09T12:45:53;93604.53;;;30.46;39.89
8294;BME280;4185;41.506;24.938;2022-09-09T12:48:28;93601.13;;;30.48;39.02
8294;BME280;4185;41.506;24.938;2022-09-09T12:50:57;93601.94;;;30.62;38.98
8294;BME280;4185;41.506;24.938;2022-09-09T12:53:27;93592.94;;;30.88;39.23
8294;BME280;4185;41.506;24.938;2022-09-09T12:55:57;93593.16;;;31.18;37.66
8294;BME280;4185;41.506;24.938;2022-09-09T12:58:26;93588.22;;;31.04;38.03
8294;BME280;4185;41.506;24.938;2022-09-09T13:00:59;93583.19;;;30.89;38.64
8294;BME280;4185;41.506;24.938;2022-09-09T13:03:26;93578.31;;;30.90;38.56
8294;BME280;4185;41.506;24.938;2022-09-09T13:05:57;93581.59;;;31.12;36.59
8294;BME280;4185;41.506;24.938;2022-09-09T13:08:25;93597.09;;;31.13;35.01
8294;BME280;4185;41.506;24.938;2022-09-09T13:11:00;93587.09;;;31.35;35.22
8294;BME280;4185;41.506;24.938;2022-09-09T13:13:36;93579.47;;;31.62;34.22
8294;BME280;4185;41.506;24.938;2022-09-09T13:16:05;93584.06;;;31.83;34.05
8294;BME280;4185;41.506;24.938;2022-09-09T13:18:36;93590.31;;;31.95;33.67
8294;BME280;4185;41.506;24.938;2022-09-09T13:21:04;93580.75;;;32.00;33.77
8294;BME280;4185;41.506;24.938;2022-09-09T13:23:33;93590.84;;;31.91;33.38
8294;BME280;4185;41.506;24.938;2022-09-09T13:26:03;93590.41;;;32.10;33.93
8294;BME280;4185;41.506;24.938;2022-09-09T13:28:33;93591.34;;;32.15;33.72
8294;BME280;4185;41.506;24.938;2022-09-09T13:31:02;93577.38;;;32.17;33.87
8294;BME280;4185;41.506;24.938;2022-09-09T13:33:32;93585.72;;;32.29;34.97